Time;durP1;ratioP1;P1;durP2;ratioP2;P2;SDS_P1;SDS_P2;PMS_P1;PMS_P2;Temp;Humidity;BMP_temperature;BMP_pressure;BME280_temperature;BME280_humidity;BME280_pressure;Samples;Min_cycle;Max_cycle;Signal;HPM_P1;HPM_P2
2023/06/07 00:02:14;;;;;;;16.30;10.18;;;;;;;16.46;100.00;100505.94;5079659;28;20469;-73
2023/06/07 00:04:40;;;;;;;21.80;10.80;;;;;;;16.45;100.00;100507.09;5096691;28;20395;-72
2023/06/07 00:07:06;;;;;;;24.55;12.52;;;;;;;16.41;100.00;100499.69;5079525;28;20036;-72
2023/06/07 00:09:31;;;;;;;20.20;10.43;;;;;;;16.34;100.00;100502.19;5079488;28;20039;-72
2023/06/07 00:11:57;;;;;;;21.30;10.88;;;;;;;16.30;100.00;100502.03;5079407;28;20032;-72
2023/06/07 00:14:23;;;;;;;18.58;11.40;;;;;;;16.26;100.00;100507.47;5079227;28;20425;-72
2023/06/07 00:16:52;;;;;;;19.85;10.50;;;;;;;16.26;100.00;100507.47;5079234;28;20103;-72
2023/06/07 00:19:21;;;;;;;19.15;10.68;;;;;;;16.26;100.00;100512.25;5061573;28;20054;-72
2023/06/07 00:21:48;;;;;;;18.05;10.85;;;;;;;16.19;100.00;100500.75;5081680;28;20106;-72
2023/06/07 00:24:15;;;;;;;21.95;10.85;;;;;;;16.15;100.00;100503.38;5092745;28;20035;-72
2023/06/07 00:26:41;;;;;;;18.27;10.73;;;;;;;16.14;100.00;100506.50;5079054;28;20028;-72
2023/06/07 00:29:06;;;;;;;23.50;11.02;;;;;;;16.08;100.00;100503.06;5104577;28;20046;-72
2023/06/07 00:31:31;;;;;;;20.20;10.82;;;;;;;16.07;100.00;100504.19;5090994;28;20037;-72
2023/06/07 00:33:57;;;;;;;18.67;10.85;;;;;;;16.03;100.00;100492.03;5100713;28;20527;-72
2023/06/07 00:36:22;;;;;;;18.73;10.10;;;;;;;16.04;100.00;100502.06;5090509;28;20032;-72
2023/06/07 00:38:48;;;;;;;17.25;9.57;;;;;;;16.01;100.00;100502.72;5078784;28;20088;-72
2023/06/07 00:41:13;;;;;;;19.20;10.13;;;;;;;15.96;100.00;100498.09;5079834;28;20028;-72
2023/06/07 00:43:39;;;;;;;22.73;10.23;;;;;;;15.92;100.00;100490.72;5093854;28;20314;-73
2023/06/07 00:46:05;;;;;;;19.08;10.55;;;;;;;15.92;100.00;100496.31;5093609;28;20027;-72
2023/06/07 00:48:31;;;;;;;20.23;11.10;;;;;;;15.93;100.00;100489.53;5083627;28;20032;-73
2023/06/07 00:50:56;;;;;;;18.88;10.75;;;;;;;15.82;100.00;100481.50;5078318;28;20524;-72
2023/06/07 00:53:22;;;;;;;21.27;11.18;;;;;;;15.80;100.00;100477.38;5078499;28;20096;-72
2023/06/07 00:55:48;;;;;;;26.08;12.05;;;;;;;15.76;100.00;100470.78;5078625;28;20385;-73
2023/06/07 00:58:14;;;;;;;23.17;11.63;;;;;;;15.73;100.00;100463.84;5060545;28;20029;-72
2023/06/07 01:00:39;;;;;;;22.90;10.98;;;;;;;15.67;100.00;100465.16;5060294;28;20067;-72
2023/06/07 01:03:05;;;;;;;20.75;10.85;;;;;;;15.69;100.00;100465.69;5084230;28;20084;-72
2023/06/07 01:05:31;;;;;;;23.25;11.93;;;;;;;15.63;100.00;100462.19;5089317;28;20067;-72
2023/06/07 01:07:57;;;;;;;21.35;11.15;;;;;;;15.61;100.00;100458.06;5078274;28;20032;-72
2023/06/07 01:10:22;;;;;;;20.15;11.50;;;;;;;15.58;100.00;100465.16;5078234;28;20024;-73
2023/06/07 01:12:49;;;;;;;23.05;10.85;;;;;;;15.56;100.00;100459.06;5060279;28;20082;-72
2023/06/07 01:15:14;;;;;;;20.90;11.18;;;;;;;15.55;100.00;100457.41;5060477;28;20033;-73
2023/06/07 01:17:42;;;;;;;23.42;11.75;;;;;;;15.54;100.00;100452.13;5060210;28;20070;-73
2023/06/07 01:20:12;;;;;;;22.45;13.13;;;;;;;15.47;100.00;100452.63;5060095;28;20082;-72
2023/06/07 01:22:42;;;;;;;22.40;11.52;;;;;;;15.48;100.00;100453.47;5070602;28;20032;-73
2023/06/07 01:25:08;;;;;;;15.43;9.93;;;;;;;15.45;100.00;100452.13;5060731;28;20036;-72
2023/06/07 01:27:36;;;;;;;17.48;9.48;;;;;;;15.44;100.00;100452.47;5061152;28;20029;-72
2023/06/07 01:30:02;;;;;;;21.25;11.75;;;;;;;15.41;100.00;100446.38;5091487;28;20427;-72
2023/06/07 01:32:28;;;;;;;20.92;11.20;;;;;;;15.39;100.00;100439.47;5082128;28;20024;-73
2023/06/07 01:34:53;;;;;;;19.50;10.43;;;;;;;15.39;100.00;100454.28;5089339;28;20142;-72
2023/06/07 01:37:20;;;;;;;18.23;10.73;;;;;;;15.35;100.00;100444.91;5047475;28;20519;-73
2023/06/07 01:39:45;;;;;;;22.00;10.38;;;;;;;15.33;100.00;100441.59;5059803;28;20032;-72
2023/06/07 01:42:11;;;;;;;24.02;11.52;;;;;;;15.30;100.00;100442.25;5043241;28;20090;-72
2023/06/07 01:44:39;;;;;;;23.48;11.82;;;;;;;15.26;100.00;100443.22;5059853;28;20033;-72
2023/06/07 01:47:05;;;;;;;24.80;10.38;;;;;;;15.24;100.00;100437.13;5106306;28;20047;-72
2023/06/07 01:49:31;;;;;;;21.20;11.00;;;;;;;15.21;100.00;100444.22;5087610;28;20028;-72
2023/06/07 01:51:56;;;;;;;17.25;9.90;;;;;;;15.18;100.00;100444.84;5077603;28;20028;-72
2023/06/07 01:54:22;;;;;;;20.40;10.93;;;;;;;15.15;100.00;100442.72;5077631;28;20025;-72
2023/06/07 01:56:53;;;;;;;17.90;10.10;;;;;;;15.13;100.00;100442.25;5043048;28;20373;-72
2023/06/07 01:59:31;;;;;;;18.52;9.38;;;;;;;15.06;100.00;100445.50;5077405;28;20085;-72
2023/06/07 02:02:20;;;;;;;19.13;10.50;;;;;;;15.03;100.00;100442.53;5059483;28;20036;-73
2023/06/07 02:04:46;;;;;;;15.23;9.80;;;;;;;14.98;100.00;100430.34;5074668;28;20043;-72
2023/06/07 02:07:22;;;;;;;18.17;10.60;;;;;;;14.97;100.00;100439.06;5059543;28;20116;-73
2023/06/07 02:09:47;;;;;;;19.40;9.88;;;;;;;14.94;100.00;100429.34;5060610;28;20485;-72
2023/06/07 02:12:13;;;;;;;19.23;10.20;;;;;;;14.94;100.00;100423.75;5059025;28;20028;-72
2023/06/07 02:14:38;;;;;;;19.63;10.30;;;;;;;14.90;100.00;100421.94;5057257;28;20028;-72
2023/06/07 02:17:07;;;;;;;20.85;10.18;;;;;;;14.87;100.00;100423.41;5059336;28;20032;-72
2023/06/07 02:19:34;;;;;;;17.92;9.63;;;;;;;14.85;100.00;100425.72;5059108;28;20040;-72
2023/06/07 02:21:59;;;;;;;18.13;9.52;;;;;;;14.84;100.00;100426.84;5079952;28;20036;-73
2023/06/07 02:24:25;;;;;;;16.52;9.48;;;;;;;14.82;100.00;100425.53;5090874;28;20036;-72
2023/06/07 02:26:53;;;;;;;18.85;9.68;;;;;;;14.80;100.00;100425.88;5077232;28;20489;-72
2023/06/07 02:29:22;;;;;;;18.30;10.45;;;;;;;14.78;100.00;100418.97;5074323;28;20054;-72
2023/06/07 02:31:48;;;;;;;18.15;10.27;;;;;;;14.74;100.00;100422.41;5086662;28;20033;-72
2023/06/07 02:34:14;;;;;;;19.27;9.90;;;;;;;14.70;100.00;100426.97;5091306;28;20032;-72
2023/06/07 02:36:40;;;;;;;21.23;10.70;;;;;;;14.70;100.00;100426.16;5086042;28;20040;-72
2023/06/07 02:39:07;;;;;;;19.17;9.65;;;;;;;14.66;100.00;100433.56;5077012;28;20500;-73
2023/06/07 02:41:33;;;;;;;19.77;9.35;;;;;;;14.66;100.00;100422.38;5077133;28;20086;-72
2023/06/07 02:43:58;;;;;;;24.50;10.63;;;;;;;14.62;100.00;100426.94;5081235;28;20040;-72
2023/06/07 02:46:24;;;;;;;17.23;9.65;;;;;;;14.59;100.00;100427.59;5100609;28;20054;-73
2023/06/07 02:48:49;;;;;;;19.95;10.18;;;;;;;14.56;100.00;100422.66;5117508;28;20027;-72
2023/06/07 02:51:15;;;;;;;16.70;9.73;;;;;;;14.50;100.00;100419.97;5117309;28;20027;-72
2023/06/07 02:53:41;;;;;;;20.77;9.90;;;;;;;14.48;100.00;100419.47;5117542;28;20395;-72
2023/06/07 02:56:08;;;;;;;17.25;9.55;;;;;;;14.43;100.00;100418.78;5117690;28;20035;-72
2023/06/07 02:58:34;;;;;;;18.77;9.75;;;;;;;14.41;100.00;100419.13;5080705;28;20035;-72
2023/06/07 03:01:00;;;;;;;16.35;9.25;;;;;;;14.41;100.00;100413.53;5097015;28;20449;-72
2023/06/07 03:03:25;;;;;;;17.30;9.95;;;;;;;14.39;100.00;100415.00;5104027;28;20073;-72
2023/06/07 03:05:52;;;;;;;15.70;9.88;;;;;;;14.36;100.00;100410.06;5105034;28;20032;-72
2023/06/07 03:08:18;;;;;;;21.58;9.93;;;;;;;14.33;100.00;100417.13;5062612;28;20062;-72
2023/06/07 03:10:43;;;;;;;20.20;9.95;;;;;;;14.29;100.00;100413.28;5097117;28;20024;-73
2023/06/07 03:13:09;;;;;;;16.40;10.23;;;;;;;14.27;100.00;100415.63;5096979;28;20032;-72
2023/06/07 03:15:35;;;;;;;17.70;10.27;;;;;;;14.24;100.00;100414.28;5096961;28;20028;-73
2023/06/07 03:18:03;;;;;;;20.17;9.65;;;;;;;14.25;100.00;100420.69;5096886;28;20039;-73
2023/06/07 03:20:29;;;;;;;16.48;9.77;;;;;;;14.21;100.00;100408.53;5098027;28;20109;-73
2023/06/07 03:22:55;;;;;;;16.30;9.75;;;;;;;14.20;100.00;100415.22;5105413;28;20032;-72
2023/06/07 03:25:21;;;;;;;18.02;9.77;;;;;;;14.17;100.00;100407.50;5081432;28;20077;-72
2023/06/07 03:27:47;;;;;;;16.48;9.43;;;;;;;14.16;100.00;100419.81;5102839;28;20036;-72
2023/06/07 03:30:12;;;;;;;19.80;9.70;;;;;;;14.14;100.00;100411.75;5120656;28;20030;-72
2023/06/07 03:32:38;;;;;;;18.05;10.25;;;;;;;14.12;100.00;100416.00;5103423;28;20070;-72
2023/06/07 03:35:03;;;;;;;17.67;9.88;;;;;;;14.06;100.00;100413.34;5120608;28;20035;-72
2023/06/07 03:37:29;;;;;;;20.25;9.98;;;;;;;14.06;100.00;100416.13;5102622;28;20032;-72
2023/06/07 03:39:54;;;;;;;17.88;9.50;;;;;;;14.01;100.00;100413.50;5082157;28;20049;-73
2023/06/07 03:42:20;;;;;;;22.35;9.60;;;;;;;13.97;100.00;100417.25;5100216;28;20028;-72
2023/06/07 03:44:45;;;;;;;17.90;10.18;;;;;;;13.96;100.00;100415.63;5100150;28;20028;-73
2023/06/07 03:47:11;;;;;;;21.52;10.77;;;;;;;13.94;100.00;100418.72;5098516;28;20051;-72
2023/06/07 03:49:36;;;;;;;17.33;10.35;;;;;;;13.92;100.00;100415.41;5108639;28;20102;-72
2023/06/07 03:52:02;;;;;;;17.58;10.43;;;;;;;13.95;100.00;100408.34;5082237;28;20024;-73
2023/06/07 03:54:27;;;;;;;21.35;10.82;;;;;;;13.89;100.00;100409.63;5100003;28;20032;-73
2023/06/07 03:56:52;;;;;;;22.95;11.13;;;;;;;13.84;100.00;100403.03;5099958;28;20358;-72
2023/06/07 03:59:20;;;;;;;19.92;10.40;;;;;;;13.83;100.00;100408.94;5099789;28;20028;-72
2023/06/07 04:01:48;;;;;;;24.15;11.82;;;;;;;13.87;100.00;100409.94;5113360;28;20506;-72
2023/06/07 04:04:13;;;;;;;21.17;11.35;;;;;;;13.86;100.00;100411.91;5113419;28;20038;-72
2023/06/07 04:06:39;;;;;;;18.70;10.35;;;;;;;13.85;100.00;100403.88;5100579;28;20036;-73
2023/06/07 04:09:06;;;;;;;20.73;10.73;;;;;;;13.82;100.00;100407.31;5099793;28;20384;-72
2023/06/07 04:11:32;;;;;;;20.33;10.57;;;;;;;13.81;100.00;100408.44;5099570;28;20084;-72
2023/06/07 04:13:57;;;;;;;16.77;10.43;;;;;;;13.80;100.00;100413.19;5099654;28;20028;-72
2023/06/07 04:16:23;;;;;;;17.45;10.55;;;;;;;13.76;100.00;100409.41;5099327;28;20062;-72
2023/06/07 04:18:48;;;;;;;21.15;11.30;;;;;;;13.78;100.00;100407.09;5081604;28;20035;-72
2023/06/07 04:21:14;;;;;;;21.35;11.15;;;;;;;13.79;100.00;100407.91;5082687;28;20473;-72
2023/06/07 04:23:41;;;;;;;19.48;10.35;;;;;;;13.77;100.00;100411.03;5107873;28;20031;-72
2023/06/07 04:26:08;;;;;;;18.90;10.80;;;;;;;13.75;100.00;100412.50;5099358;28;20442;-73
2023/06/07 04:28:34;;;;;;;18.15;10.27;;;;;;;13.76;100.00;100408.56;5073899;28;20031;-73
2023/06/07 04:30:59;;;;;;;21.20;11.27;;;;;;;13.73;100.00;100417.56;5115193;28;20024;-72
2023/06/07 04:33:27;;;;;;;17.95;10.30;;;;;;;13.73;100.00;100415.59;5106560;28;20061;-72
2023/06/07 04:35:57;;;;;;;21.40;11.68;;;;;;;13.74;100.00;100414.47;5096115;28;20040;-72
2023/06/07 04:38:23;;;;;;;17.98;10.48;;;;;;;13.77;100.00;100413.03;5081790;28;20032;-72
2023/06/07 04:40:49;;;;;;;20.65;11.45;;;;;;;13.76;100.00;100416.94;5098878;28;20024;-73
2023/06/07 04:43:18;;;;;;;17.75;10.07;;;;;;;13.81;100.00;100412.03;5102463;28;20514;-72
2023/06/07 04:45:44;;;;;;;21.02;11.50;;;;;;;13.85;100.00;100415.03;5103822;28;20032;-72
2023/06/07 04:48:13;;;;;;;19.40;10.55;;;;;;;13.91;100.00;100413.75;5101149;28;20172;-72
2023/06/07 04:50:41;;;;;;;17.35;10.88;;;;;;;13.96;100.00;100415.63;5098689;28;20039;-72
2023/06/07 04:53:08;;;;;;;19.45;11.43;;;;;;;14.01;100.00;100419.09;5098821;28;20108;-72
2023/06/07 04:55:34;;;;;;;19.42;11.30;;;;;;;14.09;100.00;100421.09;5098721;28;20094;-72
2023/06/07 04:58:04;;;;;;;20.80;11.70;;;;;;;14.16;100.00;100420.66;5080634;28;20068;-72
2023/06/07 05:00:30;;;;;;;17.92;11.15;;;;;;;14.26;100.00;100416.75;5064567;28;20032;-73
2023/06/07 05:02:57;;;;;;;19.98;12.18;;;;;;;14.34;100.00;100418.75;5083462;28;20035;-73
2023/06/07 05:05:22;;;;;;;19.70;11.82;;;;;;;14.43;100.00;100419.63;5110587;28;20028;-73
2023/06/07 05:07:49;;;;;;;25.85;14.18;;;;;;;14.51;100.00;100416.06;5098523;28;20039;-73
2023/06/07 05:10:18;;;;;;;21.25;13.07;;;;;;;14.64;100.00;100421.88;5098604;28;20076;-73
2023/06/07 05:12:43;;;;;;;23.98;14.55;;;;;;;14.73;100.00;100425.50;5098474;28;20028;-72
2023/06/07 05:15:09;;;;;;;21.33;13.70;;;;;;;14.80;100.00;100417.47;5098372;28;20039;-72
2023/06/07 05:17:36;;;;;;;24.65;13.70;;;;;;;14.89;100.00;100420.31;5098348;28;20104;-72
2023/06/07 05:20:06;;;;;;;21.17;12.77;;;;;;;14.95;100.00;100417.00;5098040;28;20024;-73
2023/06/07 05:22:31;;;;;;;21.90;12.25;;;;;;;14.98;100.00;100416.34;5100679;28;20028;-72
2023/06/07 05:24:56;;;;;;;21.80;12.95;;;;;;;15.04;100.00;100419.00;5111296;28;20442;-72
2023/06/07 05:27:22;;;;;;;25.17;14.63;;;;;;;15.08;100.00;100422.81;5080134;28;20039;-73
2023/06/07 05:29:47;;;;;;;25.58;13.90;;;;;;;15.12;100.00;100421.00;5117431;28;20069;-72
2023/06/07 05:32:13;;;;;;;19.75;12.48;;;;;;;15.18;100.00;100422.47;5104490;28;20032;-72
2023/06/07 05:34:39;;;;;;;21.55;13.77;;;;;;;15.22;100.00;100417.91;5115590;28;20130;-73
2023/06/07 05:37:05;;;;;;;24.55;14.48;;;;;;;15.26;100.00;100418.06;5104362;28;20374;-72
2023/06/07 05:39:30;;;;;;;22.17;14.20;;;;;;;15.28;100.00;100422.16;5097931;28;20039;-72
2023/06/07 05:41:56;;;;;;;24.40;13.70;;;;;;;15.33;100.00;100416.41;5097946;28;20024;-72
2023/06/07 05:44:21;;;;;;;26.23;15.07;;;;;;;15.34;100.00;100423.66;5097987;28;20036;-72
2023/06/07 05:46:47;;;;;;;26.63;16.30;;;;;;;15.39;100.00;100417.91;5110393;28;20052;-73
2023/06/07 05:49:12;;;;;;;25.63;16.42;;;;;;;15.49;100.00;100421.50;5110623;28;20054;-73
2023/06/07 05:51:37;;;;;;;26.50;14.35;;;;;;;15.56;100.00;100413.44;5097807;28;20028;-73
2023/06/07 05:54:05;;;;;;;22.35;14.57;;;;;;;15.71;100.00;100417.75;5097845;28;20032;-72
2023/06/07 05:56:30;;;;;;;24.25;13.70;;;;;;;15.85;100.00;100408.03;5097759;28;20023;-72
2023/06/07 05:58:56;;;;;;;32.72;15.30;;;;;;;16.03;100.00;100416.38;5097819;28;20028;-73
2023/06/07 06:01:21;;;;;;;20.65;13.60;;;;;;;16.21;100.00;100426.38;5097489;28;20035;-72
2023/06/07 06:03:47;;;;;;;22.70;14.18;;;;;;;16.35;100.00;100423.38;5107685;28;20027;-73
2023/06/07 06:06:16;;;;;;;30.95;14.90;;;;;;;16.49;100.00;100420.34;5102954;28;20024;-73
2023/06/07 06:08:42;;;;;;;23.98;11.80;;;;;;;16.67;100.00;100421.09;5079916;28;20444;-72
2023/06/07 06:11:11;;;;;;;25.52;13.38;;;;;;;16.81;100.00;100418.09;5097545;28;20024;-73
2023/06/07 06:13:38;;;;;;;21.45;13.27;;;;;;;16.90;100.00;100418.88;5079555;28;20404;-73
2023/06/07 06:16:03;;;;;;;22.67;14.43;;;;;;;16.97;100.00;100430.38;5097379;28;20028;-73
2023/06/07 06:18:29;;;;;;;24.42;14.23;;;;;;;16.98;100.00;100420.78;5097504;28;20043;-73
2023/06/07 06:20:54;;;;;;;22.85;13.70;;;;;;;17.01;100.00;100425.72;5081375;28;20073;-73
2023/06/07 06:23:20;;;;;;;20.10;13.18;;;;;;;17.09;100.00;100427.66;5105077;28;20097;-73
2023/06/07 06:25:46;;;;;;;21.83;13.55;;;;;;;17.20;100.00;100436.50;5103441;28;20028;-72
2023/06/07 06:28:12;;;;;;;23.08;13.77;;;;;;;17.30;100.00;100436.13;5085184;28;20504;-73
2023/06/07 06:30:37;;;;;;;25.92;14.93;;;;;;;17.45;100.00;100428.25;5116871;28;20028;-73
2023/06/07 06:33:03;;;;;;;21.90;13.75;;;;;;;17.61;100.00;100430.06;5101740;28;20039;-73
2023/06/07 06:35:32;;;;;;;23.42;14.10;;;;;;;17.83;100.00;100434.53;5116612;28;20492;-73
2023/06/07 06:37:58;;;;;;;23.02;13.25;;;;;;;18.08;100.00;100441.06;5097580;28;20067;-73
2023/06/07 06:40:23;;;;;;;20.75;13.02;;;;;;;18.33;100.00;100440.28;5097218;28;20032;-73
2023/06/07 06:42:49;;;;;;;22.90;12.40;;;;;;;18.60;100.00;100448.06;5097371;28;20036;-73
2023/06/07 06:45:15;;;;;;;21.05;13.95;;;;;;;18.87;100.00;100438.16;5101589;28;20035;-73
2023/06/07 06:47:41;;;;;;;20.13;11.90;;;;;;;19.15;100.00;100443.88;5106132;28;20047;-73
2023/06/07 06:50:13;;;;;;;19.70;12.90;;;;;;;19.47;100.00;100440.41;5078688;28;20024;-73
2023/06/07 06:52:39;;;;;;;23.70;12.70;;;;;;;19.70;100.00;100438.75;5079096;28;20028;-72
2023/06/07 06:55:05;;;;;;;21.48;13.55;;;;;;;19.97;100.00;100444.72;5097257;28;20490;-73
2023/06/07 06:57:30;;;;;;;25.77;13.70;;;;;;;20.21;100.00;100440.97;5097122;28;20028;-73
2023/06/07 06:59:56;;;;;;;22.98;14.18;;;;;;;20.37;100.00;100441.81;5100600;28;20035;-73
2023/06/07 07:02:21;;;;;;;21.98;12.77;;;;;;;20.55;100.00;100436.66;5082779;28;20077;-73
2023/06/07 07:04:46;;;;;;;19.55;12.40;;;;;;;20.74;100.00;100435.94;5097397;28;20040;-73
2023/06/07 07:07:12;;;;;;;19.77;11.93;;;;;;;20.84;100.00;100432.59;5101026;28;20028;-73
2023/06/07 07:09:38;;;;;;;19.65;11.50;;;;;;;20.96;100.00;100428.81;5101023;28;20020;-73
2023/06/07 07:12:05;;;;;;;20.58;11.27;;;;;;;21.12;100.00;100440.09;5100934;28;20043;-73
2023/06/07 07:14:30;;;;;;;18.98;10.85;;;;;;;21.19;100.00;100438.25;5100774;28;20032;-73
2023/06/07 07:16:56;;;;;;;16.00;10.73;;;;;;;21.36;100.00;100427.72;5082532;28;20081;-73
2023/06/07 07:19:21;;;;;;;18.52;10.38;;;;;;;21.43;100.00;100430.75;5100241;28;20054;-73
2023/06/07 07:21:47;;;;;;;19.92;10.88;;;;;;;21.54;100.00;100426.16;5084672;28;20082;-73
2023/06/07 07:24:12;;;;;;;15.45;10.00;;;;;;;21.64;100.00;100427.56;5114179;28;20032;-73
2023/06/07 07:26:39;;;;;;;21.13;11.10;;;;;;;21.71;100.00;100427.72;5100568;28;20369;-73
2023/06/07 07:29:04;;;;;;;18.08;10.90;;;;;;;21.74;100.00;100423.34;5113609;28;20074;-73
2023/06/07 07:31:33;;;;;;;16.13;10.35;;;;;;;21.81;100.00;100426.28;5112565;28;20048;-73
2023/06/07 07:33:59;;;;;;;18.30;9.90;;;;;;;21.84;100.00;100425.53;5108342;28;20472;-73
2023/06/07 07:36:25;;;;;;;14.60;9.63;;;;;;;21.89;100.00;100424.44;5100967;28;20051;-73
2023/06/07 07:38:51;;;;;;;15.05;9.88;;;;;;;21.90;100.00;100424.06;5114004;28;20031;-73
2023/06/07 07:41:17;;;;;;;15.88;8.60;;;;;;;22.04;100.00;100421.53;5105524;28;20028;-73
2023/06/07 07:43:42;;;;;;;15.35;9.48;;;;;;;22.14;100.00;100424.94;5100204;28;20481;-73
2023/06/07 07:46:08;;;;;;;15.38;8.80;;;;;;;22.32;100.00;100420.47;5089747;28;20027;-73
2023/06/07 07:48:33;;;;;;;13.32;8.63;;;;;;;22.40;100.00;100416.56;5100251;28;20032;-73
2023/06/07 07:50:59;;;;;;;18.95;9.20;;;;;;;22.48;100.00;100412.69;5099748;28;20024;-73
2023/06/07 07:53:25;;;;;;;12.77;7.93;;;;;;;22.59;100.00;100417.69;5111728;28;20506;-73
2023/06/07 07:55:51;;;;;;;15.98;7.97;;;;;;;22.69;100.00;100414.22;5100051;28;20028;-73
2023/06/07 07:58:16;;;;;;;14.88;7.97;;;;;;;22.85;100.00;100409.25;5081936;28;20035;-73
2023/06/07 08:00:42;;;;;;;18.90;8.95;;;;;;;23.01;100.00;100411.13;5099751;28;20028;-73
2023/06/07 08:03:08;;;;;;;14.73;7.93;;;;;;;23.16;98.44;100413.78;5104055;28;20038;-73
2023/06/07 08:05:33;;;;;;;15.48;8.02;;;;;;;23.20;96.76;100411.00;5110692;28;20032;-73
2023/06/07 08:07:59;;;;;;;16.40;8.13;;;;;;;23.34;96.04;100402.69;5099892;28;20054;-73
2023/06/07 08:10:25;;;;;;;10.82;7.43;;;;;;;23.49;95.09;100402.91;5098999;28;20023;-74
2023/06/07 08:12:50;;;;;;;13.05;8.02;;;;;;;23.63;93.63;100405.94;5099521;28;20036;-74
2023/06/07 08:15:16;;;;;;;13.15;7.90;;;;;;;23.66;91.28;100408.00;5099376;28;20045;-73
2023/06/07 08:17:41;;;;;;;15.63;8.13;;;;;;;23.76;89.05;100395.16;5099374;28;20539;-74
2023/06/07 08:20:10;;;;;;;14.52;8.52;;;;;;;23.84;87.74;100397.69;5099123;28;20085;-74
2023/06/07 08:22:39;;;;;;;11.18;7.93;;;;;;;23.90;86.31;100391.69;5103308;28;20024;-73
2023/06/07 08:25:05;;;;;;;14.70;7.25;;;;;;;24.07;86.20;100396.72;5111382;28;20055;-74
2023/06/07 08:27:31;;;;;;;10.73;7.13;;;;;;;24.21;84.38;100402.56;5081552;28;20028;-73
2023/06/07 08:29:56;;;;;;;13.15;7.68;;;;;;;24.33;81.33;100400.66;5114443;28;20324;-73
2023/06/07 08:32:22;;;;;;;10.48;6.78;;;;;;;24.44;80.24;100404.44;5103915;28;20039;-73
2023/06/07 08:34:47;;;;;;;12.50;7.22;;;;;;;24.53;81.22;100399.25;5114606;28;20058;-74
2023/06/07 08:37:13;;;;;;;14.10;7.32;;;;;;;24.65;81.48;100404.63;5085714;28;20039;-73
2023/06/07 08:39:38;;;;;;;9.80;6.50;;;;;;;24.75;78.82;100395.38;5099113;28;20423;-73
2023/06/07 08:42:04;;;;;;;12.27;7.20;;;;;;;24.86;79.46;100394.66;5099058;28;20024;-74
2023/06/07 08:44:30;;;;;;;11.57;7.35;;;;;;;25.05;79.15;100397.22;5099057;28;20453;-74
2023/06/07 08:46:56;;;;;;;12.57;7.38;;;;;;;25.10;77.03;100399.69;5095250;28;20048;-73
2023/06/07 08:49:24;;;;;;;13.55;7.25;;;;;;;25.19;75.48;100396.53;5091781;28;20055;-73
2023/06/07 08:51:49;;;;;;;11.23;6.65;;;;;;;25.35;75.33;100393.34;5064461;28;20584;-74
2023/06/07 08:54:16;;;;;;;13.35;6.82;;;;;;;25.48;72.59;100386.13;5098896;28;20149;-73
2023/06/07 08:56:41;;;;;;;13.15;7.25;;;;;;;25.55;72.67;100386.16;5080755;28;20028;-74
2023/06/07 08:59:07;;;;;;;11.00;6.50;;;;;;;25.76;72.31;100385.41;5080826;28;20531;-73
2023/06/07 09:01:35;;;;;;;10.20;6.10;;;;;;;25.84;72.86;100377.75;5063938;28;20490;-74
2023/06/07 09:04:00;;;;;;;13.00;6.78;;;;;;;25.94;70.90;100382.69;5110143;28;20031;-74
2023/06/07 09:06:26;;;;;;;14.25;6.47;;;;;;;26.08;70.22;100387.59;5101860;28;20042;-74
2023/06/07 09:08:52;;;;;;;13.32;6.97;;;;;;;26.19;68.25;100374.19;5080617;28;20035;-74
2023/06/07 09:11:17;;;;;;;11.10;6.22;;;;;;;26.33;68.70;100373.41;5098566;28;20028;-74
2023/06/07 09:13:43;;;;;;;12.02;6.40;;;;;;;26.45;65.95;100375.84;5098472;28;20093;-74
2023/06/07 09:16:11;;;;;;;13.65;6.00;;;;;;;26.52;65.92;100378.75;5098336;28;20095;-74
2023/06/07 09:18:56;;;;;;;12.35;6.85;;;;;;;26.66;63.63;100377.09;5063800;28;20040;-74
2023/06/07 09:21:22;;;;;;;11.73;6.10;;;;;;;26.83;63.17;100366.91;5099930;28;20153;-74
2023/06/07 09:23:51;;;;;;;10.43;5.53;;;;;;;26.97;63.03;100366.91;5091803;28;20038;-74
2023/06/07 09:26:17;;;;;;;8.45;5.32;;;;;;;27.06;59.88;100370.13;5081448;28;20093;-74
2023/06/07 09:28:45;;;;;;;7.80;5.53;;;;;;;27.16;58.93;100365.66;5108516;28;20058;-74
2023/06/07 09:31:11;;;;;;;5.97;5.05;;;;;;;27.23;57.26;100361.97;5112883;28;20099;-74
2023/06/07 09:33:37;;;;;;;11.32;5.85;;;;;;;27.22;57.56;100368.88;5107229;28;20660;-73
2023/06/07 09:36:08;;;;;;;9.23;5.03;;;;;;;27.28;56.90;100367.28;5112273;28;20028;-73
2023/06/07 09:38:34;;;;;;;7.70;5.30;;;;;;;27.35;55.57;100362.34;5098178;28;20059;-73
2023/06/07 09:41:00;;;;;;;8.05;4.90;;;;;;;27.39;53.42;100368.84;5104946;28;21027;-73
2023/06/07 09:43:25;;;;;;;10.35;5.53;;;;;;;27.48;53.33;100359.84;5086414;28;20039;-73
2023/06/07 09:45:55;;;;;;;8.43;5.78;;;;;;;27.60;54.17;100369.97;5103385;28;20035;-74
2023/06/07 09:48:20;;;;;;;9.02;5.45;;;;;;;27.74;53.07;100364.22;5117456;28;20035;-74
2023/06/07 09:51:12;;;;;;;10.63;5.45;;;;;;;27.84;52.15;100362.56;5097791;28;20024;-74
2023/06/07 09:53:48;;;;;;;;;;;;;;;27.89;49.73;100369.88;5094469;28;20078;-74
2023/06/07 09:56:16;;;;;;;6.70;4.60;;;;;;;28.10;49.98;100366.09;5097874;28;20322;-74
2023/06/07 09:58:46;;;;;;;9.90;4.55;;;;;;;28.07;48.57;100365.69;5097811;28;20107;-74
2023/06/07 10:01:11;;;;;;;6.47;4.75;;;;;;;28.16;48.19;100365.22;5097653;28;20380;-74
2023/06/07 10:03:47;;;;;;;6.90;4.80;;;;;;;28.13;45.11;100363.19;5106442;28;20036;-73
2023/06/07 10:06:14;;;;;;;7.22;4.45;;;;;;;28.20;45.03;100368.88;5102417;28;20024;-74
2023/06/07 10:08:40;;;;;;;7.80;4.28;;;;;;;28.36;45.91;100350.38;5063069;28;20028;-74
2023/06/07 10:11:06;;;;;;;7.18;4.80;;;;;;;28.46;45.10;100363.81;5063142;28;20131;-74
2023/06/07 10:13:31;;;;;;;9.00;4.40;;;;;;;28.52;44.45;100356.41;5079808;28;20024;-74
2023/06/07 10:15:57;;;;;;;15.63;4.95;;;;;;;28.69;44.06;100360.34;5062776;28;20042;-74
2023/06/07 10:18:22;;;;;;;6.78;4.50;;;;;;;28.88;43.88;100356.88;5079638;28;20504;-74
2023/06/07 10:20:53;;;;;;;6.28;4.47;;;;;;;29.03;42.73;100351.91;5081661;28;20078;-74
2023/06/07 10:23:47;;;;;;;8.48;5.30;;;;;;;29.10;40.17;100351.00;5106108;28;20055;-74
2023/06/07 10:26:19;;;;;;;6.93;4.43;;;;;;;29.15;38.61;100354.19;5096676;28;20044;-74
2023/06/07 10:28:53;;;;;;;7.05;4.20;;;;;;;29.21;38.80;100348.81;5089987;28;20101;-74
2023/06/07 10:31:18;;;;;;;5.82;4.20;;;;;;;29.25;38.57;100345.91;5104151;28;20028;-74
2023/06/07 10:33:44;;;;;;;7.20;4.15;;;;;;;29.38;38.62;100349.84;5095627;28;20384;-74
2023/06/07 10:36:09;;;;;;;6.53;3.70;;;;;;;29.43;37.56;100340.00;5093432;28;20476;-74
2023/06/07 10:38:35;;;;;;;8.00;4.20;;;;;;;29.45;37.21;100341.19;5083521;28;20032;-74
2023/06/07 10:41:02;;;;;;;7.07;3.80;;;;;;;29.38;36.80;100347.78;5083291;28;20442;-73
2023/06/07 10:43:28;;;;;;;7.05;3.90;;;;;;;29.25;35.41;100351.63;5101502;28;20032;-73
2023/06/07 10:46:23;;;;;;;5.03;3.88;;;;;;;29.22;34.69;100341.03;5088978;28;20028;-73
2023/06/07 10:48:48;;;;;;;5.05;4.15;;;;;;;29.25;35.01;100331.63;5121673;28;20040;-73
2023/06/07 10:51:15;;;;;;;6.75;4.38;;;;;;;29.27;35.42;100332.00;5103506;28;20031;-73
2023/06/07 10:53:51;;;;;;;5.95;4.38;;;;;;;29.43;35.86;100323.63;5121540;28;20110;-74
2023/06/07 10:56:26;;;;;;;8.45;4.20;;;;;;;29.54;36.44;100324.31;5121580;28;20028;-73
2023/06/07 10:58:51;;;;;;;8.63;4.05;;;;;;;29.61;35.97;100324.22;5121695;28;20085;-73
2023/06/07 11:01:24;;;;;;;7.15;4.03;;;;;;;29.72;34.94;100324.09;5102883;28;20043;-67
2023/06/07 11:03:50;;;;;;;6.68;4.10;;;;;;;29.78;35.75;100321.56;5086023;28;20038;-66
2023/06/07 11:06:16;;;;;;;7.07;4.10;;;;;;;29.84;35.40;100331.31;5102811;28;20031;-67
2023/06/07 11:08:41;;;;;;;7.05;3.65;;;;;;;29.73;34.98;100324.91;5055426;28;20023;-67